sensor_id;sensor_type;location;lat;lon;timestamp;pressure;altitude;pressure_sealevel;temperature;humidity
27705;BME280;15109;50.992;6.918;2022-12-10T00:02:15;100218.03;;;-0.47;100.00
27705;BME280;15109;50.992;6.918;2022-12-10T00:05:38;100216.97;;;-0.34;100.00
27705;BME280;15109;50.992;6.918;2022-12-10T00:09:05;100214.56;;;-0.37;100.00
27705;BME280;15109;50.992;6.918;2022-12-10T00:12:33;100208.47;;;-0.39;100.00
27705;BME280;15109;50.992;6.918;2022-12-10T00:16:01;100218.16;;;-0.48;100.00
27705;BME280;15109;50.992;6.918;2022-12-10T00:19:26;100210.13;;;-0.48;100.00
27705;BME280;15109;50.992;6.918;2022-12-10T00:22:47;100205.38;;;-0.56;100.00
27705;BME280;15109;50.992;6.918;2022-12-10T00:26:20;100213.34;;;-0.65;100.00
27705;BME280;15109;50.992;6.918;2022-12-10T00:29:42;100214.44;;;-0.68;100.00
27705;BME280;15109;50.992;6.918;2022-12-10T00:33:03;100223.25;;;-0.66;100.00
27705;BME280;15109;50.992;6.918;2022-12-10T00:36:44;100214.34;;;-0.77;100.00
27705;BME280;15109;50.992;6.918;2022-12-10T00:40:06;100210.47;;;-0.84;100.00
27705;BME280;15109;50.992;6.918;2022-12-10T00:43:31;100216.22;;;-0.89;100.00
27705;BME280;15109;50.992;6.918;2022-12-10T00:46:52;100221.13;;;-0.94;100.00
27705;BME280;15109;50.992;6.918;2022-12-10T00:50:13;100218.66;;;-0.86;100.00
27705;BME280;15109;50.992;6.918;2022-12-10T00:53:36;100215.53;;;-0.91;100.00
27705;BME280;15109;50.992;6.918;2022-12-10T00:57:00;100216.75;;;-0.95;100.00
27705;BME280;15109;50.992;6.918;2022-12-10T01:00:24;100211.13;;;-1.03;100.00
27705;BME280;15109;50.992;6.918;2022-12-10T01:03:47;100221.25;;;-1.07;100.00
27705;BME280;15109;50.992;6.918;2022-12-10T01:07:09;100210.78;;;-1.10;100.00
27705;BME280;15109;50.992;6.918;2022-12-10T01:10:31;100209.69;;;-1.07;100.00
27705;BME280;15109;50.992;6.918;2022-12-10T01:13:52;100220.66;;;-1.10;100.00
27705;BME280;15109;50.992;6.918;2022-12-10T01:17:13;100225.31;;;-1.12;100.00
27705;BME280;15109;50.992;6.918;2022-12-10T01:20:35;100230.69;;;-1.12;100.00
27705;BME280;15109;50.992;6.918;2022-12-10T01:23:58;100232.00;;;-1.07;100.00
27705;BME280;15109;50.992;6.918;2022-12-10T01:27:20;100241.16;;;-1.09;100.00
27705;BME280;15109;50.992;6.918;2022-12-10T01:30:41;100237.03;;;-1.13;100.00
27705;BME280;15109;50.992;6.918;2022-12-10T01:34:05;100253.13;;;-1.13;100.00
27705;BME280;15109;50.992;6.918;2022-12-10T01:37:27;100254.19;;;-1.16;100.00
27705;BME280;15109;50.992;6.918;2022-12-10T01:40:48;100258.34;;;-1.12;100.00
27705;BME280;15109;50.992;6.918;2022-12-10T01:47:30;100256.53;;;-1.22;100.00
27705;BME280;15109;50.992;6.918;2022-12-10T01:50:53;100265.44;;;-1.22;100.00
27705;BME280;15109;50.992;6.918;2022-12-10T01:54:23;100262.16;;;-1.25;100.00
27705;BME280;15109;50.992;6.918;2022-12-10T01:57:45;100256.31;;;-1.30;100.00
27705;BME280;15109;50.992;6.918;2022-12-10T02:05:22;100262.75;;;-1.33;100.00
27705;BME280;15109;50.992;6.918;2022-12-10T02:09:04;100255.44;;;-1.31;100.00
27705;BME280;15109;50.992;6.918;2022-12-10T02:16:21;100268.84;;;-1.42;100.00
27705;BME280;15109;50.992;6.918;2022-12-10T02:27:51;100274.44;;;-1.45;100.00
27705;BME280;15109;50.992;6.918;2022-12-10T02:31:17;100270.06;;;-1.46;100.00
27705;BME280;15109;50.992;6.918;2022-12-10T02:34:47;100271.28;;;-1.50;100.00
27705;BME280;15109;50.992;6.918;2022-12-10T02:38:19;100278.84;;;-1.44;100.00
27705;BME280;15109;50.992;6.918;2022-12-10T02:41:50;100271.88;;;-1.47;100.00
27705;BME280;15109;50.992;6.918;2022-12-10T02:45:12;100266.91;;;-1.51;100.00
27705;BME280;15109;50.992;6.918;2022-12-10T02:48:36;100263.47;;;-1.53;100.00
27705;BME280;15109;50.992;6.918;2022-12-10T02:51:59;100269.34;;;-1.48;100.00
27705;BME280;15109;50.992;6.918;2022-12-10T02:55:26;100271.88;;;-1.47;100.00
27705;BME280;15109;50.992;6.918;2022-12-10T03:06:52;100277.88;;;-1.21;100.00
27705;BME280;15109;50.992;6.918;2022-12-10T03:10:17;100285.16;;;-1.12;100.00
27705;BME280;15109;50.992;6.918;2022-12-10T03:17:15;100288.56;;;-0.99;100.00
27705;BME280;15109;50.992;6.918;2022-12-10T03:20:39;100290.75;;;-0.93;100.00
27705;BME280;15109;50.992;6.918;2022-12-10T03:24:01;100297.09;;;-0.82;100.00
27705;BME280;15109;50.992;6.918;2022-12-10T03:27:23;100296.31;;;-0.73;100.00
27705;BME280;15109;50.992;6.918;2022-12-10T03:30:46;100288.63;;;-0.67;100.00
27705;BME280;15109;50.992;6.918;2022-12-10T03:34:09;100286.94;;;-0.68;100.00
27705;BME280;15109;50.992;6.918;2022-12-10T03:37:31;100291.28;;;-0.56;100.00
27705;BME280;15109;50.992;6.918;2022-12-10T03:40:52;100285.41;;;-0.50;100.00
27705;BME280;15109;50.992;6.918;2022-12-10T03:44:35;100298.56;;;-0.47;100.00
27705;BME280;15109;50.992;6.918;2022-12-10T03:47:57;100298.09;;;-0.40;100.00
27705;BME280;15109;50.992;6.918;2022-12-10T03:51:18;100292.06;;;-0.33;100.00
27705;BME280;15109;50.992;6.918;2022-12-10T03:54:39;100299.25;;;-0.22;100.00
27705;BME280;15109;50.992;6.918;2022-12-10T03:58:00;100298.47;;;-0.13;100.00
27705;BME280;15109;50.992;6.918;2022-12-10T04:01:21;100300.53;;;-0.17;100.00
27705;BME280;15109;50.992;6.918;2022-12-10T04:04:43;100300.31;;;-0.14;100.00
27705;BME280;15109;50.992;6.918;2022-12-10T04:08:04;100297.34;;;-0.11;100.00
27705;BME280;15109;50.992;6.918;2022-12-10T04:11:25;100303.97;;;-0.15;100.00
27705;BME280;15109;50.992;6.918;2022-12-10T04:14:47;100313.47;;;-0.11;100.00
27705;BME280;15109;50.992;6.918;2022-12-10T04:18:26;100313.66;;;-0.03;100.00
27705;BME280;15109;50.992;6.918;2022-12-10T04:21:48;100306.47;;;-0.02;100.00
27705;BME280;15109;50.992;6.918;2022-12-10T04:25:28;100306.47;;;-0.02;100.00
27705;BME280;15109;50.992;6.918;2022-12-10T04:29:26;100317.53;;;0.05;100.00
27705;BME280;15109;50.992;6.918;2022-12-10T04:32:48;100320.47;;;0.13;100.00
27705;BME280;15109;50.992;6.918;2022-12-10T04:36:12;100319.72;;;0.11;100.00
27705;BME280;15109;50.992;6.918;2022-12-10T04:39:35;100318.16;;;0.08;100.00
27705;BME280;15109;50.992;6.918;2022-12-10T04:42:56;100315.69;;;0.05;100.00
27705;BME280;15109;50.992;6.918;2022-12-10T04:46:18;100318.66;;;0.02;100.00
27705;BME280;15109;50.992;6.918;2022-12-10T04:49:39;100319.44;;;0.14;100.00
27705;BME280;15109;50.992;6.918;2022-12-10T04:53:00;100312.91;;;0.07;100.00
27705;BME280;15109;50.992;6.918;2022-12-10T04:56:22;100311.66;;;0.11;100.00
27705;BME280;15109;50.992;6.918;2022-12-10T04:59:45;100309.47;;;0.05;100.00
27705;BME280;15109;50.992;6.918;2022-12-10T05:03:06;100309.94;;;0.10;100.00
27705;BME280;15109;50.992;6.918;2022-12-10T05:06:27;100310.28;;;0.16;100.00
27705;BME280;15109;50.992;6.918;2022-12-10T05:09:48;100316.56;;;0.26;100.00
27705;BME280;15109;50.992;6.918;2022-12-10T05:13:09;100321.75;;;0.18;100.00
27705;BME280;15109;50.992;6.918;2022-12-10T05:16:32;100314.06;;;0.14;100.00
27705;BME280;15109;50.992;6.918;2022-12-10T05:19:53;100315.50;;;0.18;100.00
27705;BME280;15109;50.992;6.918;2022-12-10T05:23:15;100320.25;;;0.25;100.00
27705;BME280;15109;50.992;6.918;2022-12-10T05:26:48;100306.94;;;0.24;100.00
27705;BME280;15109;50.992;6.918;2022-12-10T05:30:12;100314.59;;;0.28;100.00
27705;BME280;15109;50.992;6.918;2022-12-10T05:33:33;100319.25;;;0.26;100.00
27705;BME280;15109;50.992;6.918;2022-12-10T05:36:54;100315.13;;;0.22;100.00
27705;BME280;15109;50.992;6.918;2022-12-10T05:40:15;100315.38;;;0.19;100.00
27705;BME280;15109;50.992;6.918;2022-12-10T05:43:36;100315.84;;;0.24;100.00
27705;BME280;15109;50.992;6.918;2022-12-10T05:46:57;100316.72;;;0.25;100.00
27705;BME280;15109;50.992;6.918;2022-12-10T05:50:18;100326.50;;;0.26;100.00
27705;BME280;15109;50.992;6.918;2022-12-10T05:53:40;100329.31;;;0.24;100.00
27705;BME280;15109;50.992;6.918;2022-12-10T05:57:02;100328.56;;;0.22;100.00
27705;BME280;15109;50.992;6.918;2022-12-10T06:00:23;100332.84;;;0.25;100.00
27705;BME280;15109;50.992;6.918;2022-12-10T06:03:44;100334.41;;;0.27;100.00
27705;BME280;15109;50.992;6.918;2022-12-10T06:07:05;100330.84;;;0.27;100.00
27705;BME280;15109;50.992;6.918;2022-12-10T06:10:26;100331.13;;;0.44;100.00
27705;BME280;15109;50.992;6.918;2022-12-10T06:13:49;100336.44;;;0.35;100.00
27705;BME280;15109;50.992;6.918;2022-12-10T06:17:11;100343.53;;;0.36;100.00
27705;BME280;15109;50.992;6.918;2022-12-10T06:20:37;100338.03;;;0.37;100.00
27705;BME280;15109;50.992;6.918;2022-12-10T06:23:58;100333.22;;;0.41;100.00
27705;BME280;15109;50.992;6.918;2022-12-10T06:27:19;100331.97;;;0.45;100.00
27705;BME280;15109;50.992;6.918;2022-12-10T06:30:41;100328.13;;;0.38;100.00
27705;BME280;15109;50.992;6.918;2022-12-10T06:34:02;100338.53;;;0.31;100.00
27705;BME280;15109;50.992;6.918;2022-12-10T06:37:23;100342.81;;;0.34;100.00
27705;BME280;15109;50.992;6.918;2022-12-10T06:40:44;100345.34;;;0.35;100.00
27705;BME280;15109;50.992;6.918;2022-12-10T06:44:08;100351.53;;;0.47;100.00
27705;BME280;15109;50.992;6.918;2022-12-10T06:47:29;100352.78;;;0.43;100.00
27705;BME280;15109;50.992;6.918;2022-12-10T06:50:50;100358.03;;;0.44;100.00
27705;BME280;15109;50.992;6.918;2022-12-10T06:54:11;100356.31;;;0.43;100.00
27705;BME280;15109;50.992;6.918;2022-12-10T06:57:32;100361.06;;;0.51;100.00
27705;BME280;15109;50.992;6.918;2022-12-10T07:00:53;100361.75;;;0.53;100.00
27705;BME280;15109;50.992;6.918;2022-12-10T07:04:14;100362.03;;;0.50;100.00
27705;BME280;15109;50.992;6.918;2022-12-10T07:07:36;100368.25;;;0.51;100.00
27705;BME280;15109;50.992;6.918;2022-12-10T07:10:57;100377.31;;;0.50;100.00
27705;BME280;15109;50.992;6.918;2022-12-10T07:14:19;100372.41;;;0.55;100.00
27705;BME280;15109;50.992;6.918;2022-12-10T07:17:40;100379.50;;;0.56;100.00
27705;BME280;15109;50.992;6.918;2022-12-10T07:21:01;100378.06;;;0.52;100.00
27705;BME280;15109;50.992;6.918;2022-12-10T07:24:22;100386.53;;;0.57;100.00
27705;BME280;15109;50.992;6.918;2022-12-10T07:27:43;100385.84;;;0.55;100.00
27705;BME280;15109;50.992;6.918;2022-12-10T07:31:06;100380.59;;;0.53;100.00
27705;BME280;15109;50.992;6.918;2022-12-10T07:34:28;100386.69;;;0.55;100.00
27705;BME280;15109;50.992;6.918;2022-12-10T07:37:49;100389.38;;;0.55;100.00
27705;BME280;15109;50.992;6.918;2022-12-10T07:41:11;100397.31;;;0.57;100.00
27705;BME280;15109;50.992;6.918;2022-12-10T07:44:33;100394.63;;;0.57;100.00
27705;BME280;15109;50.992;6.918;2022-12-10T07:47:54;100407.16;;;0.67;100.00
27705;BME280;15109;50.992;6.918;2022-12-10T07:51:16;100394.84;;;0.65;100.00
27705;BME280;15109;50.992;6.918;2022-12-10T07:54:38;100405.72;;;0.63;100.00
27705;BME280;15109;50.992;6.918;2022-12-10T07:57:59;100410.91;;;0.76;100.00
27705;BME280;15109;50.992;6.918;2022-12-10T08:01:24;100413.38;;;0.88;100.00
27705;BME280;15109;50.992;6.918;2022-12-10T08:04:46;100423.84;;;0.82;100.00
27705;BME280;15109;50.992;6.918;2022-12-10T08:08:07;100425.28;;;0.86;100.00
27705;BME280;15109;50.992;6.918;2022-12-10T08:11:28;100428.94;;;0.85;100.00
27705;BME280;15109;50.992;6.918;2022-12-10T08:14:49;100435.19;;;0.85;100.00
27705;BME280;15109;50.992;6.918;2022-12-10T08:18:10;100431.19;;;0.80;100.00
27705;BME280;15109;50.992;6.918;2022-12-10T08:21:32;100433.34;;;0.86;100.00
27705;BME280;15109;50.992;6.918;2022-12-10T08:24:53;100444.25;;;0.84;100.00
27705;BME280;15109;50.992;6.918;2022-12-10T08:28:14;100452.72;;;0.80;100.00
27705;BME280;15109;50.992;6.918;2022-12-10T08:31:36;100451.19;;;0.66;100.00
27705;BME280;15109;50.992;6.918;2022-12-10T08:34:57;100449.94;;;0.70;100.00
27705;BME280;15109;50.992;6.918;2022-12-10T08:38:18;100453.84;;;0.77;100.00
27705;BME280;15109;50.992;6.918;2022-12-10T08:41:39;100460.50;;;0.83;100.00
27705;BME280;15109;50.992;6.918;2022-12-10T08:45:00;100457.34;;;0.78;100.00
27705;BME280;15109;50.992;6.918;2022-12-10T08:48:22;100461.75;;;0.79;100.00
27705;BME280;15109;50.992;6.918;2022-12-10T08:51:44;100462.34;;;0.82;100.00
27705;BME280;15109;50.992;6.918;2022-12-10T08:55:05;100467.72;;;0.82;100.00
27705;BME280;15109;50.992;6.918;2022-12-10T08:58:27;100470.75;;;0.89;100.00
27705;BME280;15109;50.992;6.918;2022-12-10T09:01:48;100474.31;;;0.89;100.00
27705;BME280;15109;50.992;6.918;2022-12-10T09:05:09;100467.94;;;0.90;100.00
27705;BME280;15109;50.992;6.918;2022-12-10T09:08:30;100474.91;;;0.93;100.00
27705;BME280;15109;50.992;6.918;2022-12-10T09:11:51;100472.72;;;0.87;100.00
27705;BME280;15109;50.992;6.918;2022-12-10T09:15:12;100477.97;;;0.88;100.00
27705;BME280;15109;50.992;6.918;2022-12-10T09:18:33;100482.38;;;0.89;100.00
27705;BME280;15109;50.992;6.918;2022-12-10T09:21:54;100484.81;;;0.93;100.00
27705;BME280;15109;50.992;6.918;2022-12-10T09:25:15;100483.81;;;0.94;100.00
27705;BME280;15109;50.992;6.918;2022-12-10T09:28:38;100484.94;;;0.91;100.00
27705;BME280;15109;50.992;6.918;2022-12-10T09:31:59;100486.38;;;0.95;100.00
27705;BME280;15109;50.992;6.918;2022-12-10T09:35:20;100489.22;;;0.94;100.00
27705;BME280;15109;50.992;6.918;2022-12-10T09:38:43;100492.03;;;0.92;100.00
27705;BME280;15109;50.992;6.918;2022-12-10T09:46:38;100473.66;;;0.97;100.00
27705;BME280;15109;50.992;6.918;2022-12-10T09:50:11;100482.19;;;1.02;100.00
27705;BME280;15109;50.992;6.918;2022-12-10T09:53:38;100484.50;;;1.07;100.00
27705;BME280;15109;50.992;6.918;2022-12-10T09:57:05;100485.94;;;1.11;100.00
27705;BME280;15109;50.992;6.918;2022-12-10T10:03:50;100494.91;;;1.21;100.00
27705;BME280;15109;50.992;6.918;2022-12-10T10:07:26;100487.28;;;1.26;100.00
27705;BME280;15109;50.992;6.918;2022-12-10T10:10:47;100493.28;;;1.29;100.00
27705;BME280;15109;50.992;6.918;2022-12-10T10:14:15;100490.44;;;1.31;100.00
27705;BME280;15109;50.992;6.918;2022-12-10T10:17:39;100491.88;;;1.35;100.00
27705;BME280;15109;50.992;6.918;2022-12-10T10:21:16;100507.72;;;1.28;100.00
27705;BME280;15109;50.992;6.918;2022-12-10T10:24:44;100495.75;;;1.21;100.00
27705;BME280;15109;50.992;6.918;2022-12-10T10:28:14;100505.22;;;1.36;100.00
27705;BME280;15109;50.992;6.918;2022-12-10T10:31:40;100494.31;;;1.38;100.00
27705;BME280;15109;50.992;6.918;2022-12-10T10:35:02;100501.00;;;1.44;100.00
27705;BME280;15109;50.992;6.918;2022-12-10T10:38:27;100498.75;;;1.49;100.00
27705;BME280;15109;50.992;6.918;2022-12-10T10:41:53;100492.97;;;1.53;100.00
27705;BME280;15109;50.992;6.918;2022-12-10T10:45:35;100491.13;;;1.54;100.00
27705;BME280;15109;50.992;6.918;2022-12-10T10:49:33;100485.72;;;1.54;100.00
27705;BME280;15109;50.992;6.918;2022-12-10T10:52:54;100488.56;;;1.52;100.00
27705;BME280;15109;50.992;6.918;2022-12-10T10:59:38;100489.47;;;1.62;100.00
27705;BME280;15109;50.992;6.918;2022-12-10T11:02:59;100498.84;;;1.68;100.00
27705;BME280;15109;50.992;6.918;2022-12-10T11:06:20;100497.44;;;1.73;100.00
27705;BME280;15109;50.992;6.918;2022-12-10T11:09:43;100498.16;;;1.75;100.00
27705;BME280;15109;50.992;6.918;2022-12-10T11:13:14;100488.09;;;1.77;100.00
27705;BME280;15109;50.992;6.918;2022-12-10T11:16:38;100494.09;;;1.81;100.00
27705;BME280;15109;50.992;6.918;2022-12-10T11:23:41;100490.09;;;1.75;100.00
27705;BME280;15109;50.992;6.918;2022-12-10T11:27:08;100493.47;;;1.77;100.00
27705;BME280;15109;50.992;6.918;2022-12-10T11:30:43;100494.50;;;1.86;100.00
27705;BME280;15109;50.992;6.918;2022-12-10T11:38:21;100490.31;;;2.03;100.00
27705;BME280;15109;50.992;6.918;2022-12-10T11:45:26;100493.84;;;2.03;100.00
27705;BME280;15109;50.992;6.918;2022-12-10T11:56:11;100501.31;;;1.80;100.00
27705;BME280;15109;50.992;6.918;2022-12-10T11:59:47;100499.88;;;1.76;100.00
27705;BME280;15109;50.992;6.918;2022-12-10T12:10:34;100492.97;;;1.93;100.00
27705;BME280;15109;50.992;6.918;2022-12-10T12:14:08;100506.50;;;2.03;100.00
27705;BME280;15109;50.992;6.918;2022-12-10T12:17:37;100507.06;;;2.06;100.00
27705;BME280;15109;50.992;6.918;2022-12-10T12:21:07;100501.25;;;2.20;100.00
27705;BME280;15109;50.992;6.918;2022-12-10T12:24:38;100507.69;;;2.19;100.00
27705;BME280;15109;50.992;6.918;2022-12-10T12:28:09;100489.81;;;2.28;100.00
27705;BME280;15109;50.992;6.918;2022-12-10T12:31:36;100501.00;;;2.23;100.00
27705;BME280;15109;50.992;6.918;2022-12-10T12:35:19;100512.78;;;2.22;100.00
27705;BME280;15109;50.992;6.918;2022-12-10T12:43:02;100508.53;;;2.29;100.00
27705;BME280;15109;50.992;6.918;2022-12-10T12:46:38;100505.38;;;2.24;100.00
27705;BME280;15109;50.992;6.918;2022-12-10T12:50:01;100509.53;;;2.19;100.00
27705;BME280;15109;50.992;6.918;2022-12-10T12:53:23;100509.34;;;2.20;100.00
27705;BME280;15109;50.992;6.918;2022-12-10T13:00:17;100490.47;;;2.20;100.00
27705;BME280;15109;50.992;6.918;2022-12-10T13:03:40;100491.66;;;2.37;100.00
27705;BME280;15109;50.992;6.918;2022-12-10T13:07:33;100499.06;;;2.45;100.00
27705;BME280;15109;50.992;6.918;2022-12-10T13:18:34;100483.56;;;2.47;100.00
27705;BME280;15109;50.992;6.918;2022-12-10T13:35:59;100497.47;;;2.42;100.00
27705;BME280;15109;50.992;6.918;2022-12-10T13:39:34;100505.31;;;2.45;100.00
27705;BME280;15109;50.992;6.918;2022-12-10T13:42:58;100504.13;;;2.38;100.00
27705;BME280;15109;50.992;6.918;2022-12-10T13:46:52;100499.88;;;2.26;100.00
27705;BME280;15109;50.992;6.918;2022-12-10T14:01:05;100511.47;;;2.17;100.00
27705;BME280;15109;50.992;6.918;2022-12-10T14:04:48;100513.31;;;2.16;100.00
27705;BME280;15109;50.992;6.918;2022-12-10T14:08:17;100517.16;;;2.14;100.00
27705;BME280;15109;50.992;6.918;2022-12-10T14:12:01;100522.25;;;2.07;100.00
27705;BME280;15109;50.992;6.918;2022-12-10T14:15:25;100525.22;;;2.04;100.00
27705;BME280;15109;50.992;6.918;2022-12-10T14:18:58;100529.91;;;2.02;100.00
27705;BME280;15109;50.992;6.918;2022-12-10T14:22:48;100526.94;;;2.05;100.00
27705;BME280;15109;50.992;6.918;2022-12-10T14:26:21;100529.50;;;2.07;100.00
27705;BME280;15109;50.992;6.918;2022-12-10T14:29:45;100536.00;;;2.04;100.00
27705;BME280;15109;50.992;6.918;2022-12-10T14:33:10;100529.22;;;2.10;100.00
27705;BME280;15109;50.992;6.918;2022-12-10T14:36:37;100546.50;;;2.07;100.00
27705;BME280;15109;50.992;6.918;2022-12-10T14:40:01;100550.78;;;2.10;100.00
27705;BME280;15109;50.992;6.918;2022-12-10T14:43:24;100543.22;;;2.04;100.00
27705;BME280;15109;50.992;6.918;2022-12-10T14:46:49;100543.09;;;2.05;100.00
27705;BME280;15109;50.992;6.918;2022-12-10T14:50:12;100556.19;;;2.10;100.00
27705;BME280;15109;50.992;6.918;2022-12-10T14:53:34;100549.94;;;2.09;100.00
27705;BME280;15109;50.992;6.918;2022-12-10T14:57:05;100553.78;;;2.16;100.00
27705;BME280;15109;50.992;6.918;2022-12-10T15:00:28;100545.81;;;2.05;100.00
27705;BME280;15109;50.992;6.918;2022-12-10T15:03:49;100545.63;;;1.97;100.00
27705;BME280;15109;50.992;6.918;2022-12-10T15:07:16;100541.97;;;1.98;100.00
27705;BME280;15109;50.992;6.918;2022-12-10T15:10:44;100536.97;;;1.94;100.00
27705;BME280;15109;50.992;6.918;2022-12-10T15:14:06;100552.19;;;2.04;100.00
27705;BME280;15109;50.992;6.918;2022-12-10T15:17:37;100545.94;;;2.04;100.00
27705;BME280;15109;50.992;6.918;2022-12-10T15:21:11;100552.59;;;2.00;100.00
27705;BME280;15109;50.992;6.918;2022-12-10T15:24:42;100557.41;;;1.96;100.00
27705;BME280;15109;50.992;6.918;2022-12-10T15:36:43;100555.84;;;1.94;100.00
27705;BME280;15109;50.992;6.918;2022-12-10T15:40:34;100566.88;;;1.91;100.00
27705;BME280;15109;50.992;6.918;2022-12-10T15:44:04;100556.50;;;1.86;100.00
27705;BME280;15109;50.992;6.918;2022-12-10T15:47:26;100555.41;;;1.89;100.00
27705;BME280;15109;50.992;6.918;2022-12-10T15:50:49;100555.91;;;1.82;100.00
27705;BME280;15109;50.992;6.918;2022-12-10T15:54:44;100559.59;;;1.81;100.00
27705;BME280;15109;50.992;6.918;2022-12-10T15:58:13;100565.44;;;1.87;100.00
27705;BME280;15109;50.992;6.918;2022-12-10T16:01:34;100548.00;;;1.91;100.00
27705;BME280;15109;50.992;6.918;2022-12-10T16:04:55;100559.53;;;1.93;100.00
27705;BME280;15109;50.992;6.918;2022-12-10T16:08:22;100567.50;;;1.94;100.00
27705;BME280;15109;50.992;6.918;2022-12-10T16:11:44;100563.19;;;1.92;100.00
27705;BME280;15109;50.992;6.918;2022-12-10T16:15:07;100566.19;;;1.89;100.00
27705;BME280;15109;50.992;6.918;2022-12-10T16:18:31;100565.91;;;1.92;100.00
27705;BME280;15109;50.992;6.918;2022-12-10T16:21:52;100565.22;;;1.99;100.00
27705;BME280;15109;50.992;6.918;2022-12-10T16:25:14;100565.22;;;1.99;100.00
27705;BME280;15109;50.992;6.918;2022-12-10T16:28:35;100566.63;;;1.94;100.00
27705;BME280;15109;50.992;6.918;2022-12-10T16:31:56;100576.97;;;1.89;100.00
27705;BME280;15109;50.992;6.918;2022-12-10T16:35:17;100576.41;;;1.95;100.00
27705;BME280;15109;50.992;6.918;2022-12-10T16:38:39;100571.00;;;1.95;100.00
27705;BME280;15109;50.992;6.918;2022-12-10T16:42:00;100570.03;;;1.96;100.00
27705;BME280;15109;50.992;6.918;2022-12-10T16:45:27;100574.56;;;1.95;100.00
27705;BME280;15109;50.992;6.918;2022-12-10T16:48:51;100573.47;;;1.98;100.00
27705;BME280;15109;50.992;6.918;2022-12-10T16:52:15;100569.31;;;1.94;100.00
27705;BME280;15109;50.992;6.918;2022-12-10T16:55:36;100572.44;;;1.89;100.00
27705;BME280;15109;50.992;6.918;2022-12-10T16:58:58;100567.03;;;1.89;100.00
27705;BME280;15109;50.992;6.918;2022-12-10T17:02:19;100583.50;;;1.96;100.00
27705;BME280;15109;50.992;6.918;2022-12-10T17:06:08;100589.47;;;1.99;100.00
27705;BME280;15109;50.992;6.918;2022-12-10T17:09:42;100582.66;;;1.95;100.00
27705;BME280;15109;50.992;6.918;2022-12-10T17:13:03;100585.50;;;1.94;100.00
27705;BME280;15109;50.992;6.918;2022-12-10T17:16:24;100591.75;;;1.94;100.00
27705;BME280;15109;50.992;6.918;2022-12-10T17:19:45;100591.31;;;1.99;100.00
27705;BME280;15109;50.992;6.918;2022-12-10T17:23:06;100597.16;;;1.94;100.00
27705;BME280;15109;50.992;6.918;2022-12-10T17:26:32;100605.41;;;2.02;100.00
27705;BME280;15109;50.992;6.918;2022-12-10T17:29:54;100594.16;;;1.97;100.00
27705;BME280;15109;50.992;6.918;2022-12-10T17:33:21;100582.66;;;1.95;100.00
27705;BME280;15109;50.992;6.918;2022-12-10T17:36:43;100590.91;;;1.94;100.00
27705;BME280;15109;50.992;6.918;2022-12-10T17:40:14;100585.63;;;1.92;100.00
27705;BME280;15109;50.992;6.918;2022-12-10T17:43:36;100590.63;;;1.97;100.00
27705;BME280;15109;50.992;6.918;2022-12-10T17:46:57;100596.88;;;1.97;100.00
27705;BME280;15109;50.992;6.918;2022-12-10T17:53:44;100614.03;;;1.96;100.00
27705;BME280;15109;50.992;6.918;2022-12-10T17:57:18;100604.63;;;1.91;100.00
27705;BME280;15109;50.992;6.918;2022-12-10T18:00:40;100601.94;;;1.91;100.00
27705;BME280;15109;50.992;6.918;2022-12-10T18:04:02;100600.38;;;1.88;100.00
27705;BME280;15109;50.992;6.918;2022-12-10T18:07:23;100601.75;;;1.82;100.00
27705;BME280;15109;50.992;6.918;2022-12-10T18:10:44;100601.28;;;1.77;100.00
27705;BME280;15109;50.992;6.918;2022-12-10T18:14:05;100598.75;;;1.76;100.00
27705;BME280;15109;50.992;6.918;2022-12-10T18:17:26;100605.13;;;1.75;100.00
27705;BME280;15109;50.992;6.918;2022-12-10T18:20:50;100597.31;;;1.72;100.00
27705;BME280;15109;50.992;6.918;2022-12-10T18:24:11;100600.13;;;1.70;100.00
27705;BME280;15109;50.992;6.918;2022-12-10T18:27:35;100601.50;;;1.65;100.00
27705;BME280;15109;50.992;6.918;2022-12-10T18:30:56;100609.34;;;1.68;100.00
27705;BME280;15109;50.992;6.918;2022-12-10T18:34:19;100612.03;;;1.68;100.00
27705;BME280;15109;50.992;6.918;2022-12-10T18:37:40;100612.03;;;1.68;100.00
27705;BME280;15109;50.992;6.918;2022-12-10T18:41:02;100614.13;;;1.64;100.00
27705;BME280;15109;50.992;6.918;2022-12-10T18:44:24;100614.38;;;1.61;100.00
27705;BME280;15109;50.992;6.918;2022-12-10T18:47:46;100618.81;;;1.62;100.00
27705;BME280;15109;50.992;6.918;2022-12-10T18:51:07;100623.91;;;1.65;100.00
27705;BME280;15109;50.992;6.918;2022-12-10T18:54:28;100627.47;;;1.66;100.00
27705;BME280;15109;50.992;6.918;2022-12-10T18:57:50;100628.72;;;1.62;100.00
27705;BME280;15109;50.992;6.918;2022-12-10T19:01:16;100633.38;;;1.60;100.00
27705;BME280;15109;50.992;6.918;2022-12-10T19:04:37;100633.38;;;1.60;100.00
27705;BME280;15109;50.992;6.918;2022-12-10T19:07:59;100629.97;;;1.58;100.00
27705;BME280;15109;50.992;6.918;2022-12-10T19:11:22;100628.59;;;1.63;100.00
27705;BME280;15109;50.992;6.918;2022-12-10T19:14:43;100628.31;;;1.66;100.00
27705;BME280;15109;50.992;6.918;2022-12-10T19:18:04;100632.75;;;1.67;100.00
27705;BME280;15109;50.992;6.918;2022-12-10T19:21:25;100635.38;;;1.58;100.00
27705;BME280;15109;50.992;6.918;2022-12-10T19:24:46;100633.38;;;1.60;100.00
27705;BME280;15109;50.992;6.918;2022-12-10T19:28:08;100633.25;;;1.61;100.00
27705;BME280;15109;50.992;6.918;2022-12-10T19:31:32;100629.47;;;1.64;100.00
27705;BME280;15109;50.992;6.918;2022-12-10T19:34:53;100630.56;;;1.61;100.00
27705;BME280;15109;50.992;6.918;2022-12-10T19:38:14;100629.69;;;1.61;100.00
27705;BME280;15109;50.992;6.918;2022-12-10T19:41:35;100632.41;;;1.61;100.00
27705;BME280;15109;50.992;6.918;2022-12-10T19:44:56;100629.00;;;1.59;100.00
27705;BME280;15109;50.992;6.918;2022-12-10T19:48:21;100628.84;;;1.60;100.00